Theologos P . — SZNB — position and weather

sailwx.info

Track history (hours):
 
Tides and Currents Weather Stations Pressure Air Temp Water Temp Dewpoint Dewpoint Depression Visibility Wind Speed Wind Dir Waves Ship Positions

Theologos P .

Last reported at 2016-Apr-29 04:34 UTC. Time now 2016-Apr-29 06:05 UTC.
Position N 37°59' E 024°08'.

Length 118 m; draft 4.5 m.

Type: Passenger vessel. MMSI: 240521000.

Date/timePositionNaut miles runAvg speedWind from/ knotsBaromVisibWave heightAir tempDewpointWater temp
2016-Apr-29 04:34N 37°59' E 024°08'6 6.4
2016-Apr-29 03:33N 38°01' E 024°01'0 0.0
2016-Apr-29 02:33N 38°01' E 024°01'0 0.0
2016-Apr-29 01:33N 38°01' E 024°01'0 0.0
2016-Apr-29 00:33N 38°01' E 024°01'0 0.1
2016-Apr-28 23:33N 38°01' E 024°01'1717.5
2016-Apr-28 22:34N 37°52' E 024°20'2019.6
2016-Apr-28 21:34N 37°43' E 024°41'2019.5
2016-Apr-28 20:34N 37°33' E 025°03'1414.1
2016-Apr-28 19:34N 37°28' E 025°19'9 9.1
2016-Apr-28 18:34N 37°32' E 025°09'1817.8
2016-Apr-28 17:34N 37°44' E 024°52'1110.6
2016-Apr-28 16:32N 37°52' E 024°44'2318.4
2016-Apr-28 15:16N 37°58' E 024°15'7 2.4
2016-Apr-28 12:33N 37°59' E 024°07'2019.9
2016-Apr-28 11:33N 37°50' E 024°29'2419.8
2016-Apr-28 10:19N 37°37' E 024°55'1519.8
2016-Apr-28 09:33N 37°30' E 025°12'2 1.8
2016-Apr-28 08:33N 37°29' E 025°15'1313.4
2016-Apr-28 07:34N 37°37' E 025°01'2113.8
2016-Apr-28 06:03N 37°52' E 024°43'2818.9
2016-Apr-28 04:33N 37°59' E 024°08'6 6.2
2016-Apr-28 03:33N 38°01' E 024°01'0 0.0
2016-Apr-28 02:33N 38°01' E 024°01'0 0.0
2016-Apr-28 01:33N 38°01' E 024°01'0 0.0
2016-Apr-28 00:33N 38°01' E 024°01'1312.7
2016-Apr-27 23:33N 37°55' E 024°15'1919.2
2016-Apr-27 22:34N 37°45' E 024°35'2019.5
2016-Apr-27 21:34N 37°36' E 024°57'1919.3
2016-Apr-27 20:33N 37°28' E 025°19'4 4.5
2016-Apr-27 19:34N 37°30' E 025°14'1110.5
2016-Apr-27 18:33N 37°35' E 025°03'1918.9
2016-Apr-27 17:33N 37°49' E 024°46'10 8.3
2016-Apr-27 16:24N 37°53' E 024°36'1618.8
2016-Apr-27 15:34N 37°57' E 024°16'13 2.0
2016-Apr-27 09:09N 38°01' E 024°01'1119.0
2016-Apr-27 08:33N 37°58' E 024°15'4816.1
2016-Apr-27 05:34N 37°33' E 025°07'1111.2
2016-Apr-27 04:33N 37°28' E 025°20'0 0.0
2016-Apr-27 03:33N 37°28' E 025°20'0 0.0
2016-Apr-27 02:33N 37°28' E 025°20'0 0.0
2016-Apr-27 01:33N 37°28' E 025°20'0 0.0
2016-Apr-27 00:33N 37°28' E 025°20'0 0.0
2016-Apr-26 23:33N 37°28' E 025°20'0 0.0
2016-Apr-26 22:33N 37°28' E 025°20'0 0.0
2016-Apr-26 21:33N 37°28' E 025°20'0 0.0
2016-Apr-26 20:33N 37°28' E 025°20'0 0.0
2016-Apr-26 19:33N 37°28' E 025°20'1010.1
2016-Apr-26 18:33N 37°32' E 025°08'1918.7
2016-Apr-26 17:33N 37°45' E 024°51'1611.9
2016-Apr-26 16:13N 37°53' E 024°33'1318.4
2016-Apr-26 15:32N 37°57' E 024°18'12 2.0
2016-Apr-26 09:29N 38°01' E 024°04'4815.4
2016-Apr-26 06:23N 37°39' E 024°58'1113.9
2016-Apr-26 05:34N 37°32' E 025°09'9 9.2
2016-Apr-26 04:33N 37°28' E 025°20'0 0.0
2016-Apr-26 03:33N 37°28' E 025°20'0 0.0
2016-Apr-26 02:33N 37°28' E 025°20'0 0.0
2016-Apr-26 01:33N 37°28' E 025°20'0 0.0
2016-Apr-26 00:33N 37°28' E 025°20'0 0.0
2016-Apr-25 23:33N 37°28' E 025°20'0 0.0
2016-Apr-25 22:33N 37°28' E 025°20'0 0.0
2016-Apr-25 21:33N 37°28' E 025°20'0 0.0
2016-Apr-25 20:33N 37°28' E 025°20'2 2.3
2016-Apr-25 19:34N 37°28' E 025°17'9 9.0
2016-Apr-25 18:33N 37°32' E 025°07'1818.1
2016-Apr-25 17:33N 37°45' E 024°50'9 8.8
2016-Apr-25 16:32N 37°52' E 024°43'1918.6
2016-Apr-25 15:29N 37°57' E 024°19'15 2.3
2016-Apr-25 09:10N 38°01' E 024°02'1219.3
2016-Apr-25 08:34N 37°57' E 024°15'3315.0
2016-Apr-25 06:21N 37°42' E 024°53'1519.2
2016-Apr-25 05:32N 37°32' E 025°08'1010.5
2016-Apr-25 04:33N 37°28' E 025°20'0 0.0
2016-Apr-25 03:33N 37°28' E 025°20'0 0.0
2016-Apr-25 02:33N 37°28' E 025°20'0 0.0
2016-Apr-25 01:33N 37°28' E 025°20'0 0.0
2016-Apr-25 00:33N 37°28' E 025°20'0 0.0
2016-Apr-24 23:33N 37°28' E 025°20'0 0.0
2016-Apr-24 22:33N 37°28' E 025°20'0 0.0
2016-Apr-24 21:33N 37°28' E 025°20'0 0.1
2016-Apr-24 20:33N 37°28' E 025°20'1010.1
2016-Apr-24 19:34N 37°32' E 025°08'9 9.0
2016-Apr-24 18:33N 37°37' E 024°59'1918.6
2016-Apr-24 17:33N 37°51' E 024°44'1111.1
2016-Apr-24 16:33N 37°54' E 024°30'1919.4
2016-Apr-24 15:33N 37°60' E 024°06'4 3.8
2016-Apr-24 14:27N 38°01' E 024°01'1719.0
2016-Apr-24 13:34N 37°56' E 024°22'3014.5
2016-Apr-24 11:28N 37°41' E 024°55'1415.7
2016-Apr-24 10:34N 37°32' E 025°09'9 9.3
2016-Apr-24 09:33N 37°28' E 025°20'0 0.0
2016-Apr-24 08:33N 37°28' E 025°20'0 0.0
2016-Apr-24 07:33N 37°28' E 025°20'0 0.0
2016-Apr-24 06:33N 37°28' E 025°20'0 0.0
2016-Apr-24 04:33N 37°28' E 025°20'0 0.0
2016-Apr-24 03:33N 37°28' E 025°20'0 0.0
2016-Apr-24 02:33N 37°28' E 025°20'0 0.0
2016-Apr-24 01:33N 37°28' E 025°20'0 0.0
2016-Apr-24 00:33N 37°28' E 025°20'0 0.0
2016-Apr-23 23:33N 37°28' E 025°20'0 0.0
2016-Apr-23 22:33N 37°28' E 025°20'0 0.0
2016-Apr-23 21:33N 37°28' E 025°20'0 0.0
2016-Apr-23 20:33N 37°28' E 025°20'4 3.5
2016-Apr-23 19:33N 37°29' E 025°15'1212.4
2016-Apr-23 18:34N 37°35' E 025°02'4514.9
2016-Apr-23 15:33N 37°58' E 024°13'6 3.0
2016-Apr-23 13:28N 38°00' E 024°06'4414.9
2016-Apr-23 10:33N 37°41' E 024°55'1414.4
2016-Apr-23 09:33N 37°32' E 025°09'9 9.2
2016-Apr-23 08:33N 37°28' E 025°20'0 0.0
2016-Apr-23 07:33N 37°28' E 025°20'0 0.0
2016-Apr-23 06:33N 37°28' E 025°20'0 0.0
2016-Apr-23 05:34N 37°28' E 025°20'0 0.0
2016-Apr-23 04:33N 37°28' E 025°20'0 0.0
2016-Apr-23 03:34N 37°28' E 025°20'0 0.0
2016-Apr-23 02:33N 37°28' E 025°20'0 0.0
2016-Apr-23 01:34N 37°28' E 025°20'0 0.0
2016-Apr-23 00:34N 37°28' E 025°20'0 0.0
2016-Apr-22 23:34N 37°28' E 025°20'0 0.0
2016-Apr-22 22:33N 37°28' E 025°20'0 0.0
2016-Apr-22 21:34N 37°28' E 025°20'0 0.0
2016-Apr-22 20:33N 37°28' E 025°20'1 1.2
2016-Apr-22 19:33N 37°28' E 025°18'1212.3
2016-Apr-22 18:34N 37°34' E 025°05'1918.9
2016-Apr-22 17:34N 37°48' E 024°48'8 7.9
2016-Apr-22 16:33N 37°52' E 024°40'1918.3
2016-Apr-22 15:32N 37°57' E 024°17'13 2.1
2016-Apr-22 09:18N 38°01' E 024°01'1418.7
2016-Apr-22 08:34N 37°57' E 024°18'5714.2
2016-Apr-22 04:31N 37°28' E 025°20'0 0.0
2016-Apr-22 03:33N 37°28' E 025°20'0 0.0
2016-Apr-22 02:33N 37°28' E 025°20'0 0.0
2016-Apr-22 01:33N 37°28' E 025°20'0 0.0
2016-Apr-22 00:33N 37°28' E 025°20'0 0.0
2016-Apr-21 23:33N 37°28' E 025°20'0 0.0
2016-Apr-21 22:33N 37°28' E 025°20'0 0.0
2016-Apr-21 21:33N 37°28' E 025°20'0 0.0
2016-Apr-21 20:33N 37°28' E 025°20'0 0.1
2016-Apr-21 19:33N 37°28' E 025°20'1111.0
2016-Apr-21 18:33N 37°33' E 025°07'1918.8
2016-Apr-21 17:33N 37°46' E 024°50'1110.8
2016-Apr-21 16:34N 37°52' E 024°39'2118.3
2016-Apr-21 15:26N 37°58' E 024°14'5 0.9
2016-Apr-21 09:33N 37°60' E 024°08'4012.3
2016-Apr-21 06:19N 37°42' E 024°53'1418.8
2016-Apr-21 05:34N 37°33' E 025°07'1111.4
2016-Apr-21 04:33N 37°28' E 025°20'0 0.0
2016-Apr-21 03:33N 37°28' E 025°20'0 0.0
2016-Apr-21 02:33N 37°28' E 025°20'0 0.0
2016-Apr-21 01:33N 37°28' E 025°20'0 0.0
2016-Apr-21 00:33N 37°28' E 025°20'0 0.0
2016-Apr-20 23:33N 37°28' E 025°20'0 0.0
2016-Apr-20 22:33N 37°28' E 025°20'0 0.0
2016-Apr-20 21:33N 37°28' E 025°20'0 0.0
2016-Apr-20 20:33N 37°28' E 025°20'0 0.1
2016-Apr-20 19:34N 37°28' E 025°20'1110.8
2016-Apr-20 18:34N 37°33' E 025°07'1918.6
2016-Apr-20 17:34N 37°45' E 024°50'9 8.8
2016-Apr-20 16:34N 37°52' E 024°43'2317.7
2016-Apr-20 15:15N 37°58' E 024°15'11 1.9
2016-Apr-20 09:12N 38°01' E 024°01'1218.5
2016-Apr-20 08:33N 37°57' E 024°15'4916.3
2016-Apr-20 05:34N 37°32' E 025°08'1010.0
2016-Apr-20 04:33N 37°28' E 025°20'0 0.0
2016-Apr-20 03:34N 37°28' E 025°20'0 0.0
2016-Apr-20 02:34N 37°28' E 025°20'0 0.0
2016-Apr-20 01:33N 37°28' E 025°20'0 0.0
2016-Apr-20 00:34N 37°28' E 025°20'0 0.0
2016-Apr-19 23:33N 37°28' E 025°20'0 0.0
2016-Apr-19 22:34N 37°28' E 025°20'0 0.0
2016-Apr-19 21:33N 37°28' E 025°20'0 0.0
2016-Apr-19 20:34N 37°28' E 025°20'0 0.0
2016-Apr-19 19:34N 37°28' E 025°20'9 9.4
2016-Apr-19 18:33N 37°32' E 025°09'1818.1
2016-Apr-19 17:33N 37°44' E 024°52'1111.0
2016-Apr-19 16:33N 37°52' E 024°42'1918.2
2016-Apr-19 15:30N 37°56' E 024°19'15 2.4
2016-Apr-19 09:20N 38°01' E 024°01'1417.7
2016-Apr-19 08:33N 37°57' E 024°17'1919.1
2016-Apr-19 07:33N 37°52' E 024°41'1110.0
2016-Apr-19 06:28N 37°44' E 024°50'1919.1
2016-Apr-19 05:29N 37°32' E 025°09'  
Track history (hours):
 
Tides and Currents Weather Stations Pressure Air Temp Water Temp Dewpoint Dewpoint Depression Visibility Wind Speed Wind Dir Waves Ship Positions

Theologos P .

Last reported at 2016-Apr-29 04:34 UTC. Time now 2016-Apr-29 06:05 UTC.
Position N 37°59' E 024°08'.

Length 118 m; draft 4.5 m.

Type: Passenger vessel. MMSI: 240521000.

Date/timePositionNaut miles runAvg speedWind from/ knotsBaromVisibWave heightAir tempDewpointWater temp
2016-Apr-29 04:34N 37°59' E 024°08'6 6.4
2016-Apr-29 03:33N 38°01' E 024°01'0 0.0
2016-Apr-29 02:33N 38°01' E 024°01'0 0.0
2016-Apr-29 01:33N 38°01' E 024°01'0 0.0
2016-Apr-29 00:33N 38°01' E 024°01'0 0.1
2016-Apr-28 23:33N 38°01' E 024°01'1717.5
2016-Apr-28 22:34N 37°52' E 024°20'2019.6
2016-Apr-28 21:34N 37°43' E 024°41'2019.5
2016-Apr-28 20:34N 37°33' E 025°03'1414.1
2016-Apr-28 19:34N 37°28' E 025°19'9 9.1
2016-Apr-28 18:34N 37°32' E 025°09'1817.8
2016-Apr-28 17:34N 37°44' E 024°52'1110.6
2016-Apr-28 16:32N 37°52' E 024°44'2318.4
2016-Apr-28 15:16N 37°58' E 024°15'7 2.4
2016-Apr-28 12:33N 37°59' E 024°07'2019.9
2016-Apr-28 11:33N 37°50' E 024°29'2419.8
2016-Apr-28 10:19N 37°37' E 024°55'1519.8
2016-Apr-28 09:33N 37°30' E 025°12'2 1.8
2016-Apr-28 08:33N 37°29' E 025°15'1313.4
2016-Apr-28 07:34N 37°37' E 025°01'2113.8
2016-Apr-28 06:03N 37°52' E 024°43'2818.9
2016-Apr-28 04:33N 37°59' E 024°08'6 6.2
2016-Apr-28 03:33N 38°01' E 024°01'0 0.0
2016-Apr-28 02:33N 38°01' E 024°01'0 0.0
2016-Apr-28 01:33N 38°01' E 024°01'0 0.0
2016-Apr-28 00:33N 38°01' E 024°01'1312.7
2016-Apr-27 23:33N 37°55' E 024°15'1919.2
2016-Apr-27 22:34N 37°45' E 024°35'2019.5
2016-Apr-27 21:34N 37°36' E 024°57'1919.3
2016-Apr-27 20:33N 37°28' E 025°19'4 4.5
2016-Apr-27 19:34N 37°30' E 025°14'1110.5
2016-Apr-27 18:33N 37°35' E 025°03'1918.9
2016-Apr-27 17:33N 37°49' E 024°46'10 8.3
2016-Apr-27 16:24N 37°53' E 024°36'1618.8
2016-Apr-27 15:34N 37°57' E 024°16'13 2.0
2016-Apr-27 09:09N 38°01' E 024°01'1119.0
2016-Apr-27 08:33N 37°58' E 024°15'4816.1
2016-Apr-27 05:34N 37°33' E 025°07'1111.2
2016-Apr-27 04:33N 37°28' E 025°20'0 0.0
2016-Apr-27 03:33N 37°28' E 025°20'0 0.0
2016-Apr-27 02:33N 37°28' E 025°20'0 0.0
2016-Apr-27 01:33N 37°28' E 025°20'0 0.0
2016-Apr-27 00:33N 37°28' E 025°20'0 0.0
2016-Apr-26 23:33N 37°28' E 025°20'0 0.0
2016-Apr-26 22:33N 37°28' E 025°20'0 0.0
2016-Apr-26 21:33N 37°28' E 025°20'0 0.0
2016-Apr-26 20:33N 37°28' E 025°20'0 0.0
2016-Apr-26 19:33N 37°28' E 025°20'1010.1
2016-Apr-26 18:33N 37°32' E 025°08'1918.7
2016-Apr-26 17:33N 37°45' E 024°51'1611.9
2016-Apr-26 16:13N 37°53' E 024°33'1318.4
2016-Apr-26 15:32N 37°57' E 024°18'12 2.0
2016-Apr-26 09:29N 38°01' E 024°04'4815.4
2016-Apr-26 06:23N 37°39' E 024°58'1113.9
2016-Apr-26 05:34N 37°32' E 025°09'9 9.2
2016-Apr-26 04:33N 37°28' E 025°20'0 0.0
2016-Apr-26 03:33N 37°28' E 025°20'0 0.0
2016-Apr-26 02:33N 37°28' E 025°20'0 0.0
2016-Apr-26 01:33N 37°28' E 025°20'0 0.0
2016-Apr-26 00:33N 37°28' E 025°20'0 0.0
2016-Apr-25 23:33N 37°28' E 025°20'0 0.0
2016-Apr-25 22:33N 37°28' E 025°20'0 0.0
2016-Apr-25 21:33N 37°28' E 025°20'0 0.0
2016-Apr-25 20:33N 37°28' E 025°20'2 2.3
2016-Apr-25 19:34N 37°28' E 025°17'9 9.0
2016-Apr-25 18:33N 37°32' E 025°07'1818.1
2016-Apr-25 17:33N 37°45' E 024°50'9 8.8
2016-Apr-25 16:32N 37°52' E 024°43'1918.6
2016-Apr-25 15:29N 37°57' E 024°19'15 2.3
2016-Apr-25 09:10N 38°01' E 024°02'1219.3
2016-Apr-25 08:34N 37°57' E 024°15'3315.0
2016-Apr-25 06:21N 37°42' E 024°53'1519.2
2016-Apr-25 05:32N 37°32' E 025°08'1010.5
2016-Apr-25 04:33N 37°28' E 025°20'0 0.0
2016-Apr-25 03:33N 37°28' E 025°20'0 0.0
2016-Apr-25 02:33N 37°28' E 025°20'0 0.0
2016-Apr-25 01:33N 37°28' E 025°20'0 0.0
2016-Apr-25 00:33N 37°28' E 025°20'0 0.0
2016-Apr-24 23:33N 37°28' E 025°20'0 0.0
2016-Apr-24 22:33N 37°28' E 025°20'0 0.0
2016-Apr-24 21:33N 37°28' E 025°20'0 0.1
2016-Apr-24 20:33N 37°28' E 025°20'1010.1
2016-Apr-24 19:34N 37°32' E 025°08'9 9.0
2016-Apr-24 18:33N 37°37' E 024°59'1918.6
2016-Apr-24 17:33N 37°51' E 024°44'1111.1
2016-Apr-24 16:33N 37°54' E 024°30'1919.4
2016-Apr-24 15:33N 37°60' E 024°06'4 3.8
2016-Apr-24 14:27N 38°01' E 024°01'1719.0
2016-Apr-24 13:34N 37°56' E 024°22'3014.5
2016-Apr-24 11:28N 37°41' E 024°55'1415.7
2016-Apr-24 10:34N 37°32' E 025°09'9 9.3
2016-Apr-24 09:33N 37°28' E 025°20'0 0.0
2016-Apr-24 08:33N 37°28' E 025°20'0 0.0
2016-Apr-24 07:33N 37°28' E 025°20'0 0.0
2016-Apr-24 06:33N 37°28' E 025°20'0 0.0
2016-Apr-24 04:33N 37°28' E 025°20'0 0.0
2016-Apr-24 03:33N 37°28' E 025°20'0 0.0
2016-Apr-24 02:33N 37°28' E 025°20'0 0.0
2016-Apr-24 01:33N 37°28' E 025°20'0 0.0
2016-Apr-24 00:33N 37°28' E 025°20'0 0.0
2016-Apr-23 23:33N 37°28' E 025°20'0 0.0
2016-Apr-23 22:33N 37°28' E 025°20'0 0.0
2016-Apr-23 21:33N 37°28' E 025°20'0 0.0
2016-Apr-23 20:33N 37°28' E 025°20'4 3.5
2016-Apr-23 19:33N 37°29' E 025°15'1212.4
2016-Apr-23 18:34N 37°35' E 025°02'4514.9
2016-Apr-23 15:33N 37°58' E 024°13'6 3.0
2016-Apr-23 13:28N 38°00' E 024°06'4414.9
2016-Apr-23 10:33N 37°41' E 024°55'1414.4
2016-Apr-23 09:33N 37°32' E 025°09'9 9.2
2016-Apr-23 08:33N 37°28' E 025°20'0 0.0
2016-Apr-23 07:33N 37°28' E 025°20'0 0.0
2016-Apr-23 06:33N 37°28' E 025°20'0 0.0
2016-Apr-23 05:34N 37°28' E 025°20'0 0.0
2016-Apr-23 04:33N 37°28' E 025°20'0 0.0
2016-Apr-23 03:34N 37°28' E 025°20'0 0.0
2016-Apr-23 02:33N 37°28' E 025°20'0 0.0
2016-Apr-23 01:34N 37°28' E 025°20'0 0.0
2016-Apr-23 00:34N 37°28' E 025°20'0 0.0
2016-Apr-22 23:34N 37°28' E 025°20'0 0.0
2016-Apr-22 22:33N 37°28' E 025°20'0 0.0
2016-Apr-22 21:34N 37°28' E 025°20'0 0.0
2016-Apr-22 20:33N 37°28' E 025°20'1 1.2
2016-Apr-22 19:33N 37°28' E 025°18'1212.3
2016-Apr-22 18:34N 37°34' E 025°05'1918.9
2016-Apr-22 17:34N 37°48' E 024°48'8 7.9
2016-Apr-22 16:33N 37°52' E 024°40'1918.3
2016-Apr-22 15:32N 37°57' E 024°17'13 2.1
2016-Apr-22 09:18N 38°01' E 024°01'1418.7
2016-Apr-22 08:34N 37°57' E 024°18'5714.2
2016-Apr-22 04:31N 37°28' E 025°20'0 0.0
2016-Apr-22 03:33N 37°28' E 025°20'0 0.0
2016-Apr-22 02:33N 37°28' E 025°20'0 0.0
2016-Apr-22 01:33N 37°28' E 025°20'0 0.0
2016-Apr-22 00:33N 37°28' E 025°20'0 0.0
2016-Apr-21 23:33N 37°28' E 025°20'0 0.0
2016-Apr-21 22:33N 37°28' E 025°20'0 0.0
2016-Apr-21 21:33N 37°28' E 025°20'0 0.0
2016-Apr-21 20:33N 37°28' E 025°20'0 0.1
2016-Apr-21 19:33N 37°28' E 025°20'1111.0
2016-Apr-21 18:33N 37°33' E 025°07'1918.8
2016-Apr-21 17:33N 37°46' E 024°50'1110.8
2016-Apr-21 16:34N 37°52' E 024°39'2118.3
2016-Apr-21 15:26N 37°58' E 024°14'5 0.9
2016-Apr-21 09:33N 37°60' E 024°08'4012.3
2016-Apr-21 06:19N 37°42' E 024°53'1418.8
2016-Apr-21 05:34N 37°33' E 025°07'1111.4
2016-Apr-21 04:33N 37°28' E 025°20'0 0.0
2016-Apr-21 03:33N 37°28' E 025°20'0 0.0
2016-Apr-21 02:33N 37°28' E 025°20'0 0.0
2016-Apr-21 01:33N 37°28' E 025°20'0 0.0
2016-Apr-21 00:33N 37°28' E 025°20'0 0.0
2016-Apr-20 23:33N 37°28' E 025°20'0 0.0
2016-Apr-20 22:33N 37°28' E 025°20'0 0.0
2016-Apr-20 21:33N 37°28' E 025°20'0 0.0
2016-Apr-20 20:33N 37°28' E 025°20'0 0.1
2016-Apr-20 19:34N 37°28' E 025°20'1110.8
2016-Apr-20 18:34N 37°33' E 025°07'1918.6
2016-Apr-20 17:34N 37°45' E 024°50'9 8.8
2016-Apr-20 16:34N 37°52' E 024°43'2317.7
2016-Apr-20 15:15N 37°58' E 024°15'11 1.9
2016-Apr-20 09:12N 38°01' E 024°01'1218.5
2016-Apr-20 08:33N 37°57' E 024°15'4916.3
2016-Apr-20 05:34N 37°32' E 025°08'1010.0
2016-Apr-20 04:33N 37°28' E 025°20'0 0.0
2016-Apr-20 03:34N 37°28' E 025°20'0 0.0
2016-Apr-20 02:34N 37°28' E 025°20'0 0.0
2016-Apr-20 01:33N 37°28' E 025°20'0 0.0
2016-Apr-20 00:34N 37°28' E 025°20'0 0.0
2016-Apr-19 23:33N 37°28' E 025°20'0 0.0
2016-Apr-19 22:34N 37°28' E 025°20'0 0.0
2016-Apr-19 21:33N 37°28' E 025°20'0 0.0
2016-Apr-19 20:34N 37°28' E 025°20'0 0.0
2016-Apr-19 19:34N 37°28' E 025°20'9 9.4
2016-Apr-19 18:33N 37°32' E 025°09'1818.1
2016-Apr-19 17:33N 37°44' E 024°52'1111.0
2016-Apr-19 16:33N 37°52' E 024°42'1918.2
2016-Apr-19 15:30N 37°56' E 024°19'15 2.4
2016-Apr-19 09:20N 38°01' E 024°01'1417.7
2016-Apr-19 08:33N 37°57' E 024°17'1919.1
2016-Apr-19 07:33N 37°52' E 024°41'1110.0
2016-Apr-19 06:28N 37°44' E 024°50'1919.1
2016-Apr-19 05:29N 37°32' E 025°09'  

Dump ship's entire track history